• Join FlightAware (Why Join?)
  • Login
  • US Flag 
01:00AM EDT


 

Airport Tracker/Info


-or-


 

Live Flight TrackerFlight Track Log ✈ ASQ5963 ✈ 05-Jul-2013 ✈ KEWR - KALB

Flight Track Log - Related Links

Times and Time Zones

All times are in EDT time to prevent confusion due to time zone crossing. See the ASQ5963 flight status page for this flight to view local times or setup timezone preferences in your user account.

Time Position Orientation Groundspeed Altitude Reporting Facility
EDT Latitude Longitude Course Direction KTS MPH feet Rate Location/Type
01:28PM 40.6667 -74.1833 57° Northeast 143 165 900  Level New York TRACON
01:29PM 40.6333 -74.2167 217° Southwest 233 268 2,900 2,580 Climbing New York TRACON
01:30PM 40.7000 -74.2000 11° North 280 322 6,400 2,820 Climbing New York TRACON
01:31PM 40.8167 -73.8783 90° East  Level FlightAware Approximate
01:31PM 40.7333 -74.1167 62° Northeast 295 339 8,900  Level New York TRACON
01:32PM 40.8509 -73.7816 56° Northeast  Level FlightAware Approximate
01:32PM 40.7667 -74.0000 69° East 347 399 10,100  Level New York TRACON
01:33PM 40.8987 -73.6859 57° Northeast  Level FlightAware Approximate
01:33PM 40.8333 -73.8833 53° Northeast 396 456 10,300  Level New York TRACON
01:34PM 40.9000 -73.7833 49° Northeast 392 451 11,600 1,560 Climbing New York TRACON
01:35PM 40.9833 -73.7000 37° Northeast 385 443 13,300 960 Climbing New York TRACON
01:38PM 41.2094 -73.5189 31° Northeast 435 501 15,100 480 Climbing Boston Center
01:39PM 41.3311 -73.4186 32° Northeast 421 484 15,000 -60 Descending Boston Center
01:40PM 41.4236 -73.3453 31° Northeast 421 484 15,000  Level Boston Center
01:41PM 41.5447 -73.2972 17° North 416 479 15,000  Level Boston Center
01:42PM 41.6300 -73.3233 347° North 393 452 15,000  Level Boston Center
01:43PM 41.7269 -73.4331 320° Northwest 377 434 15,000 -480 Level Boston Center
01:44PM 41.8239 -73.5433 320° Northwest 383 441 14,000 -900 Descending Boston Center
01:45PM 41.9236 -73.5925 340° North 372 428 13,200 -960 Descending Boston Center
01:46PM 42.0294 -73.6167 350° North 372 428 12,100 -900 Descending Boston Center
01:47PM 42.1231 -73.6436 348° North 379 436 11,500 -600 Descending Boston Center
01:48PM 42.2250 -73.6708 349° North 379 436 11,000 -420 Descending Boston Center
01:49PM 42.3292 -73.6617 North 369 425 10,700 -600 Descending Boston Center
01:50PM 42.4003 -73.6433 11° North 336 387 10,000 -1,320 Descending Boston Center
01:51PM 42.4817 -73.6253 North 287 330 8,500 -1,620 Descending Boston Center
01:52PM 42.5589 -73.6239 North 274 315 6,800 -1,740 Descending Boston Center
01:53PM 42.6317 -73.6422 350° North 271 312 5,000 -1,440 Descending Boston Center
01:53PM 42.6939 -73.6606 348° North 262 302 4,200 -1,020 Descending Boston Center
01:54PM 42.7686 -73.6875 345° North 242 278 3,100 -1,020 Descending Boston Center